createdAt,value
2018-11-14T00:00:14.742Z,14.4
2018-11-14T00:01:16.128Z,14.5
2018-11-14T00:02:17.791Z,14.4
2018-11-14T00:03:19.153Z,14.3
2018-11-14T00:04:20.498Z,14.1
2018-11-14T00:05:21.882Z,14.1
2018-11-14T00:06:23.228Z,14.1
2018-11-14T00:07:24.607Z,14.3
2018-11-14T00:08:25.938Z,14.3
2018-11-14T00:09:27.309Z,14.4
2018-11-14T00:10:28.623Z,14.2
2018-11-14T00:11:29.968Z,14.1
2018-11-14T00:12:31.365Z,13.9
2018-11-14T00:13:32.763Z,14
2018-11-14T00:14:34.170Z,13.9
2018-11-14T00:15:35.512Z,13.9
2018-11-14T00:16:37.059Z,14
2018-11-14T00:17:38.472Z,14.1
2018-11-14T00:18:39.830Z,14.1
2018-11-14T00:19:41.181Z,14.1
2018-11-14T00:20:42.586Z,14
2018-11-14T00:21:44.054Z,13.9
2018-11-14T00:22:45.793Z,13.8
2018-11-14T00:23:47.809Z,13.8
2018-11-14T00:24:49.473Z,13.7
2018-11-14T00:25:51.001Z,13.6
2018-11-14T00:26:52.658Z,13.6
2018-11-14T00:27:53.802Z,13.5
2018-11-14T00:28:55.186Z,13.8
2018-11-14T00:29:56.523Z,13.6
2018-11-14T00:30:59.979Z,13.5
2018-11-14T00:32:01.407Z,13.6
2018-11-14T00:33:03.148Z,13.6
2018-11-14T00:34:04.554Z,13.7
2018-11-14T00:35:07.934Z,13.6
2018-11-14T00:36:09.267Z,13.6
2018-11-14T00:37:10.588Z,13.6
2018-11-14T00:38:11.998Z,13.4
2018-11-14T00:39:13.384Z,13.3
2018-11-14T00:40:17.107Z,13.3
2018-11-14T00:41:18.447Z,13.4
2018-11-14T00:42:19.791Z,13.3
2018-11-14T00:43:21.171Z,13.4
2018-11-14T00:44:22.544Z,13.3
2018-11-14T00:45:26.133Z,13.4
2018-11-14T00:46:27.501Z,13.5
2018-11-14T00:47:28.870Z,13.4
2018-11-14T00:48:30.247Z,13.4
2018-11-14T00:49:31.584Z,13.2
2018-11-14T00:50:32.941Z,13.1
2018-11-14T00:51:34.413Z,13.4
2018-11-14T00:52:35.920Z,13.3
2018-11-14T00:53:37.308Z,13.3
2018-11-14T00:54:41.693Z,13.4
2018-11-14T00:55:43.056Z,13.6
2018-11-14T00:56:44.439Z,13.3
2018-11-14T00:57:45.773Z,13.3
2018-11-14T00:58:47.151Z,13.3
2018-11-14T00:59:48.479Z,13.2
2018-11-14T01:00:49.830Z,13.3
2018-11-14T01:01:51.165Z,13.2
2018-11-14T01:02:52.526Z,13.1
2018-11-14T01:03:54.298Z,13.1
2018-11-14T01:04:55.684Z,13
2018-11-14T01:05:57.038Z,13.1
2018-11-14T01:06:58.383Z,13
2018-11-14T01:07:59.722Z,13
2018-11-14T01:09:01.147Z,13.1
2018-11-14T01:10:03.792Z,13
2018-11-14T01:11:10.728Z,12.9
2018-11-14T01:12:12.106Z,13
2018-11-14T01:13:13.699Z,12.8
2018-11-14T01:14:15.077Z,13
2018-11-14T01:15:16.425Z,13
2018-11-14T01:16:17.776Z,13.1
2018-11-14T01:17:19.155Z,12.9
2018-11-14T01:18:20.515Z,12.9
2018-11-14T01:19:21.890Z,13
2018-11-14T01:20:23.299Z,12.9
2018-11-14T01:21:24.685Z,12.8
2018-11-14T01:22:26.037Z,12.9
2018-11-14T01:23:27.583Z,13
2018-11-14T01:24:28.955Z,12.9
2018-11-14T01:25:30.290Z,12.8
2018-11-14T01:26:31.620Z,12.9
2018-11-14T01:27:33.011Z,12.9
2018-11-14T01:28:34.377Z,12.8
2018-11-14T01:29:35.745Z,12.6
2018-11-14T01:30:37.108Z,12.7
2018-11-14T01:31:38.429Z,12.6
2018-11-14T01:32:39.806Z,12.8
2018-11-14T01:33:41.186Z,12.7
2018-11-14T01:34:42.590Z,12.9
2018-11-14T01:36:45.370Z,12.7
2018-11-14T01:37:46.996Z,12.7
2018-11-14T01:38:49.045Z,12.7
2018-11-14T01:39:51.200Z,12.6
2018-11-14T01:40:53.649Z,12.4
2018-11-14T01:41:55.047Z,12.6
2018-11-14T01:43:00.238Z,12.5
2018-11-14T01:44:03.005Z,12.6
2018-11-14T01:45:04.460Z,12.6
2018-11-14T01:46:05.827Z,12.5
2018-11-14T01:47:07.211Z,12.4
2018-11-14T01:48:08.582Z,12.5
2018-11-14T01:49:10.016Z,12.5
2018-11-14T01:50:14.296Z,12.6
2018-11-14T01:51:16.039Z,12.5
2018-11-14T01:52:17.372Z,12.5
2018-11-14T01:53:18.763Z,12.4
2018-11-14T01:54:20.133Z,12.4
2018-11-14T01:55:21.793Z,12.5
2018-11-14T01:56:23.155Z,12.6
2018-11-14T01:57:24.770Z,12.7
2018-11-14T01:58:26.102Z,12.7
2018-11-14T01:59:27.437Z,12.6
2018-11-14T02:00:28.816Z,12.6
2018-11-14T02:01:30.140Z,12.4
2018-11-14T02:02:31.484Z,12.5
2018-11-14T02:03:32.871Z,12.3
2018-11-14T02:04:34.231Z,12.5
2018-11-14T02:05:35.596Z,12.7
2018-11-14T02:06:36.966Z,12.4
2018-11-14T02:07:38.338Z,12.3
2018-11-14T02:08:39.919Z,12.3
2018-11-14T02:09:41.450Z,12.5
2018-11-14T02:10:43.053Z,12.4
2018-11-14T02:11:44.614Z,12.1
2018-11-14T02:12:47.260Z,12.5
2018-11-14T02:13:48.893Z,12.5
2018-11-14T02:14:50.224Z,12.3
2018-11-14T02:15:51.591Z,12.4
2018-11-14T02:16:53.108Z,12.3
2018-11-14T02:17:55.301Z,12.3
2018-11-14T02:18:56.820Z,12.2
2018-11-14T02:19:58.157Z,12.1
2018-11-14T02:20:59.597Z,12
2018-11-14T02:22:00.996Z,12.1
2018-11-14T02:23:02.383Z,12.2
2018-11-14T02:24:03.986Z,12.2
2018-11-14T02:25:05.355Z,12
2018-11-14T02:26:06.735Z,11.9
2018-11-14T02:27:08.082Z,11.9
2018-11-14T02:28:09.452Z,11.9
2018-11-14T02:29:11.082Z,11.9
2018-11-14T02:30:12.416Z,12
2018-11-14T02:31:13.848Z,12.1
2018-11-14T02:32:15.219Z,12
2018-11-14T02:33:16.588Z,12
2018-11-14T02:34:17.945Z,12.1
2018-11-14T02:35:19.336Z,12.2
2018-11-14T02:36:20.801Z,12.2
2018-11-14T02:37:22.162Z,12.3
2018-11-14T02:38:23.779Z,12.1
2018-11-14T02:39:25.127Z,12
2018-11-14T02:40:26.440Z,12.2
2018-11-14T02:41:27.812Z,12.1
2018-11-14T02:42:29.156Z,12.2
2018-11-14T02:43:30.551Z,12.1
2018-11-14T02:44:32.180Z,12.1
2018-11-14T02:45:33.540Z,12
2018-11-14T02:46:34.923Z,12.1
2018-11-14T02:47:36.276Z,12.1
2018-11-14T02:48:38.194Z,11.9
2018-11-14T02:49:43.072Z,12.1
2018-11-14T02:50:44.475Z,12
2018-11-14T02:51:45.902Z,12
2018-11-14T02:52:47.341Z,12
2018-11-14T02:53:48.655Z,12
2018-11-14T02:54:50.026Z,12.1
2018-11-14T02:55:51.379Z,12.1
2018-11-14T02:56:52.802Z,12.1
2018-11-14T02:57:54.136Z,12.2
2018-11-14T02:58:55.507Z,12.1
2018-11-14T02:59:56.842Z,12
2018-11-14T03:00:58.277Z,12.1
2018-11-14T03:02:03.530Z,12.1
2018-11-14T03:03:05.089Z,12
2018-11-14T03:04:06.421Z,12
2018-11-14T03:05:07.743Z,11.8
2018-11-14T03:06:09.067Z,11.8
2018-11-14T03:07:12.897Z,11.8
2018-11-14T03:08:14.409Z,11.8
2018-11-14T03:09:15.801Z,11.8
2018-11-14T03:10:17.155Z,11.8
2018-11-14T03:11:18.503Z,11.8
2018-11-14T03:12:20.186Z,12
2018-11-14T03:13:21.467Z,11.8
2018-11-14T03:14:22.860Z,11.7
2018-11-14T03:15:24.283Z,11.8
2018-11-14T03:16:25.630Z,11.8
2018-11-14T03:17:27.128Z,11.7
2018-11-14T03:18:28.494Z,11.9
2018-11-14T03:19:29.844Z,11.7
2018-11-14T03:20:31.204Z,11.8
2018-11-14T03:21:32.871Z,11.7
2018-11-14T03:22:34.287Z,11.7
2018-11-14T03:23:35.633Z,11.6
2018-11-14T03:24:37.408Z,11.6
2018-11-14T03:25:46.191Z,11.6
2018-11-14T03:26:47.523Z,11.6
2018-11-14T03:27:51.044Z,11.7
2018-11-14T03:28:53.654Z,11.6
2018-11-14T03:29:55.393Z,11.6
2018-11-14T03:30:58.511Z,11.6
2018-11-14T03:32:00.044Z,11.8
2018-11-14T03:33:01.691Z,11.8
2018-11-14T03:34:03.054Z,11.8
2018-11-14T03:35:04.380Z,11.8
2018-11-14T03:36:05.948Z,11.8
2018-11-14T03:37:07.300Z,11.7
2018-11-14T03:38:08.831Z,11.6
2018-11-14T03:39:12.144Z,11.7
2018-11-14T03:40:13.554Z,11.6
2018-11-14T03:41:14.955Z,11.6
2018-11-14T03:42:16.360Z,11.8
2018-11-14T03:43:17.809Z,11.8
2018-11-14T03:44:19.371Z,11.6
2018-11-14T03:45:20.700Z,11.5
2018-11-14T03:46:22.024Z,11.5
2018-11-14T03:47:23.422Z,11.6
2018-11-14T03:48:25.466Z,11.8
2018-11-14T03:49:30.141Z,11.7
2018-11-14T03:50:31.478Z,11.8
2018-11-14T03:51:32.931Z,11.7
2018-11-14T03:52:34.303Z,11.8
2018-11-14T03:53:35.957Z,11.8
2018-11-14T03:54:37.297Z,11.7
2018-11-14T03:55:41.712Z,11.8
2018-11-14T03:56:43.307Z,11.8
2018-11-14T03:57:44.955Z,11.6
2018-11-14T03:58:46.574Z,11.7
2018-11-14T03:59:48.163Z,11.7
2018-11-14T04:00:49.498Z,11.6
2018-11-14T04:01:50.842Z,11.8
2018-11-14T04:02:52.187Z,11.7
2018-11-14T04:03:53.587Z,11.6
2018-11-14T04:04:54.944Z,11.6
2018-11-14T04:05:56.290Z,11.7
2018-11-14T04:06:57.619Z,11.8
2018-11-14T04:07:58.960Z,11.8
2018-11-14T04:09:00.582Z,11.9
2018-11-14T04:10:02.077Z,11.7
2018-11-14T04:11:03.459Z,11.5
2018-11-14T04:12:04.804Z,11.6
2018-11-14T04:13:06.393Z,11.7
2018-11-14T04:14:08.303Z,11.6
2018-11-14T04:15:13.423Z,11.7
2018-11-14T04:16:14.772Z,11.8
2018-11-14T04:17:16.175Z,11.9
2018-11-14T04:18:17.520Z,11.9
2018-11-14T04:19:18.873Z,11.9
2018-11-14T04:20:20.215Z,11.9
2018-11-14T04:21:21.574Z,12.1
2018-11-14T04:22:25.460Z,11.9
2018-11-14T04:23:26.830Z,11.8
2018-11-14T04:24:28.210Z,11.8
2018-11-14T04:25:29.581Z,12
2018-11-14T04:26:30.968Z,12.1
2018-11-14T04:27:32.422Z,11.9
2018-11-14T04:28:33.779Z,11.9
2018-11-14T04:29:35.155Z,12
2018-11-14T04:30:36.515Z,12.1
2018-11-14T04:31:37.837Z,12
2018-11-14T04:32:39.387Z,12.2
2018-11-14T04:33:40.728Z,12.2
2018-11-14T04:34:42.123Z,12.1
2018-11-14T04:35:43.526Z,12.2
2018-11-14T04:36:44.906Z,11.9
2018-11-14T04:37:48.326Z,11.9
2018-11-14T04:38:49.670Z,12
2018-11-14T04:39:51.205Z,11.9
2018-11-14T04:40:52.551Z,11.9
2018-11-14T04:41:54.572Z,12.2
2018-11-14T04:42:56.667Z,12.1
2018-11-14T04:43:58.076Z,12.1
2018-11-14T04:44:59.533Z,12.1
2018-11-14T04:46:01.185Z,12
2018-11-14T04:47:02.529Z,11.9
2018-11-14T04:48:03.988Z,11.9
2018-11-14T04:49:05.281Z,11.9
2018-11-14T04:50:06.649Z,12
2018-11-14T04:51:08.008Z,12.2
2018-11-14T04:52:09.362Z,12.1
2018-11-14T04:53:10.717Z,11.9
2018-11-14T04:54:12.051Z,11.9
2018-11-14T04:55:13.737Z,12
2018-11-14T04:56:15.073Z,11.9
2018-11-14T04:57:19.376Z,11.9
2018-11-14T04:58:20.787Z,11.9
2018-11-14T04:59:23.463Z,11.9
2018-11-14T05:00:25.094Z,11.9
2018-11-14T05:01:26.490Z,11.8
2018-11-14T05:02:28.140Z,12
2018-11-14T05:03:29.442Z,12
2018-11-14T05:04:30.862Z,12.1
2018-11-14T05:05:32.263Z,11.9
2018-11-14T05:06:33.674Z,11.9
2018-11-14T05:07:35.052Z,11.9
2018-11-14T05:08:36.418Z,11.9
2018-11-14T05:09:37.741Z,11.9
2018-11-14T05:10:39.276Z,11.8
2018-11-14T05:11:40.670Z,12
2018-11-14T05:12:42.015Z,11.9
2018-11-14T05:13:43.352Z,12
2018-11-14T05:14:44.793Z,12.1
2018-11-14T05:15:46.222Z,12.6
2018-11-14T05:16:47.594Z,12.6
2018-11-14T05:17:48.920Z,12.4
2018-11-14T05:18:50.367Z,13.2
2018-11-14T05:19:51.765Z,14.2
2018-11-14T05:20:53.244Z,14.7
2018-11-14T05:21:54.627Z,15.1
2018-11-14T05:22:59.583Z,15.1
2018-11-14T05:24:01.887Z,15.2
2018-11-14T05:25:04.317Z,15.2
2018-11-14T05:26:05.796Z,15.4
2018-11-14T05:27:09.389Z,15.6
2018-11-14T05:28:10.841Z,15.5
2018-11-14T05:29:12.295Z,15.6
2018-11-14T05:30:15.673Z,15.5
2018-11-14T05:31:17.631Z,15.5
2018-11-14T05:32:22.488Z,15.7
2018-11-14T05:33:23.966Z,15.6
2018-11-14T05:34:25.423Z,15.7
2018-11-14T05:35:26.810Z,15.6
2018-11-14T05:36:28.190Z,15.7
2018-11-14T05:37:29.622Z,15.7
2018-11-14T05:38:31.145Z,16.1
2018-11-14T05:39:33.926Z,16
2018-11-14T05:40:35.241Z,15.9
2018-11-14T05:41:36.672Z,15.9
2018-11-14T05:42:39.892Z,15.9
2018-11-14T05:43:41.263Z,16
2018-11-14T05:44:42.651Z,16.1
2018-11-14T05:45:44.076Z,16.1
2018-11-14T05:46:45.484Z,16.1
2018-11-14T05:47:46.885Z,16.2
2018-11-14T05:48:48.240Z,16.3
2018-11-14T05:49:49.670Z,16.3
2018-11-14T05:50:51.107Z,16.1
2018-11-14T05:51:55.388Z,16.3
2018-11-14T05:52:56.767Z,16.3
2018-11-14T05:53:58.642Z,16.4
2018-11-14T05:55:07.651Z,16.5
2018-11-14T05:56:09.042Z,16.4
2018-11-14T05:57:10.501Z,16.4
2018-11-14T05:58:14.020Z,16.5
2018-11-14T05:59:15.380Z,16.5
2018-11-14T06:00:16.776Z,16.4
2018-11-14T06:01:18.158Z,16.4
2018-11-14T06:02:19.558Z,16.4
2018-11-14T06:03:28.423Z,16.6
2018-11-14T06:04:29.820Z,16.5
2018-11-14T06:05:31.207Z,16.5
2018-11-14T06:06:32.581Z,16.6
2018-11-14T06:07:34.129Z,16.6
2018-11-14T06:08:35.463Z,16.6
2018-11-14T06:09:36.837Z,16.5
2018-11-14T06:10:38.240Z,16.5
2018-11-14T06:11:39.648Z,16.6
2018-11-14T06:12:44.353Z,16.6
2018-11-14T06:13:45.747Z,16.7
2018-11-14T06:14:47.280Z,16.7
2018-11-14T06:15:50.086Z,16.8
2018-11-14T06:16:51.488Z,16.7
2018-11-14T06:17:57.278Z,16.8
2018-11-14T06:18:58.761Z,16.8
2018-11-14T06:20:00.211Z,16.8
2018-11-14T06:21:01.600Z,16.8
2018-11-14T06:22:03.083Z,16.9
2018-11-14T06:23:04.503Z,16.9
2018-11-14T06:24:05.944Z,16.9
2018-11-14T06:25:07.359Z,16.9
2018-11-14T06:26:08.748Z,16.8
2018-11-14T06:27:12.670Z,16.8
2018-11-14T06:28:14.199Z,16.7
2018-11-14T06:29:16.634Z,16.7
2018-11-14T06:30:18.159Z,16.8
2018-11-14T06:31:19.748Z,17
2018-11-14T06:32:21.609Z,17
2018-11-14T06:33:23.085Z,17
2018-11-14T06:34:24.740Z,16.9
2018-11-14T06:35:30.362Z,16.9
2018-11-14T06:36:32.281Z,16.9
2018-11-14T06:37:35.552Z,17
2018-11-14T06:38:53.011Z,17
2018-11-14T06:39:54.512Z,17.1
2018-11-14T06:40:56.254Z,17
2018-11-14T06:42:01.584Z,16.9
2018-11-14T06:43:03.707Z,16.9
2018-11-14T06:44:06.678Z,17
2018-11-14T06:45:08.068Z,17
2018-11-14T06:46:09.497Z,17.2
2018-11-14T06:47:10.896Z,17.1
2018-11-14T06:48:12.262Z,17.2
2018-11-14T06:49:13.964Z,17.1
2018-11-14T06:50:15.604Z,17.2
2018-11-14T06:51:18.662Z,17.2
2018-11-14T06:52:20.301Z,17.2
2018-11-14T06:53:21.760Z,17.1
2018-11-14T06:54:23.341Z,17.3
2018-11-14T06:55:24.835Z,17.3
2018-11-14T06:56:26.253Z,17.4
2018-11-14T06:57:28.546Z,17.2
2018-11-14T06:58:37.480Z,17.2
2018-11-14T06:59:40.938Z,17.2
2018-11-14T07:00:42.635Z,17.3
2018-11-14T07:01:44.211Z,17.2
2018-11-14T07:02:45.824Z,17.4
2018-11-14T07:03:50.497Z,17.4
2018-11-14T07:04:52.053Z,17.4
2018-11-14T07:05:53.517Z,17.4
2018-11-14T07:06:54.880Z,17.4
2018-11-14T07:07:56.307Z,17.4
2018-11-14T07:08:57.778Z,17.4
2018-11-14T07:09:59.219Z,17.5
2018-11-14T07:11:00.786Z,17.5
2018-11-14T07:12:02.446Z,17.5
2018-11-14T07:13:03.959Z,17.5
2018-11-14T07:14:05.596Z,17.3
2018-11-14T07:15:07.248Z,17.5
2018-11-14T07:16:11.254Z,17.5
2018-11-14T07:17:12.759Z,17.5
2018-11-14T07:18:14.726Z,17.5
2018-11-14T07:19:16.320Z,17.4
2018-11-14T07:20:17.937Z,17.5
2018-11-14T07:21:23.355Z,17.5
2018-11-14T07:22:24.863Z,17.6
2018-11-14T07:23:26.279Z,17.6
2018-11-14T07:24:29.406Z,17.6
2018-11-14T07:25:34.552Z,17.6
2018-11-14T07:26:36.811Z,17.6
2018-11-14T07:27:38.240Z,17.7
2018-11-14T07:28:39.650Z,17.7
2018-11-14T07:29:43.894Z,17.5
2018-11-14T07:30:45.335Z,17.6
2018-11-14T07:31:46.755Z,17.6
2018-11-14T07:32:48.106Z,17.6
2018-11-14T07:33:52.220Z,17.6
2018-11-14T07:34:53.620Z,17.7
2018-11-14T07:35:55.694Z,17.7
2018-11-14T07:36:57.454Z,17.7
2018-11-14T07:37:58.917Z,17.7
2018-11-14T07:39:00.290Z,17.6
2018-11-14T07:40:01.760Z,17.6
2018-11-14T07:41:05.617Z,17.7
2018-11-14T07:42:07.176Z,17.6
2018-11-14T07:43:08.560Z,17.6
2018-11-14T07:44:10.172Z,17.7
2018-11-14T07:45:12.603Z,17.8
2018-11-14T07:46:14.591Z,17.9
2018-11-14T07:47:16.038Z,17.9
2018-11-14T07:48:20.276Z,18
2018-11-14T07:49:21.730Z,18
2018-11-14T07:50:30.315Z,18
2018-11-14T07:52:49.218Z,18
2018-11-14T07:53:50.684Z,17.9
2018-11-14T07:54:52.775Z,17.9
2018-11-14T07:55:57.154Z,17.8
2018-11-14T07:57:03.103Z,17.9
2018-11-14T07:58:04.775Z,17.9
2018-11-14T07:59:08.636Z,17.9
2018-11-14T08:00:10.113Z,18
2018-11-14T08:01:11.863Z,17.9
2018-11-14T08:02:13.406Z,17.9
2018-11-14T08:03:22.114Z,17.9
2018-11-14T08:04:26.541Z,18
2018-11-14T08:05:28.333Z,18.1
2018-11-14T08:06:29.807Z,18
2018-11-14T08:07:31.368Z,18.1
2018-11-14T08:08:33.003Z,18.1
2018-11-14T08:09:37.324Z,18.1
2018-11-14T08:10:40.617Z,18.1
2018-11-14T08:11:42.079Z,18.3
2018-11-14T08:12:43.896Z,18.2
2018-11-14T08:13:47.474Z,18.3
2018-11-14T08:14:49.088Z,18.3
2018-11-14T08:15:53.396Z,18.3
2018-11-14T08:16:55.107Z,18.4
2018-11-14T08:17:59.642Z,18.4
2018-11-14T08:19:01.053Z,18.4
2018-11-14T08:20:02.546Z,18.5
2018-11-14T08:21:06.532Z,18.5
2018-11-14T08:22:08.139Z,18.5
2018-11-14T08:23:09.631Z,18.4
2018-11-14T08:24:11.008Z,18.5
2018-11-14T08:25:12.498Z,18.5
2018-11-14T08:26:13.791Z,18.5
2018-11-14T08:27:15.474Z,18.4
2018-11-14T08:28:17.247Z,18.3
2018-11-14T08:29:19.927Z,18.4
2018-11-14T08:30:21.335Z,18.3
2018-11-14T08:31:23.004Z,18.4
2018-11-14T08:32:24.839Z,18.5
2018-11-14T08:33:26.284Z,18.5
2018-11-14T08:34:29.419Z,18.5
2018-11-14T08:35:30.854Z,18.7
2018-11-14T08:36:32.243Z,18.6
2018-11-14T08:37:36.748Z,18.7
2018-11-14T08:38:38.193Z,18.7
2018-11-14T08:39:40.992Z,18.8
2018-11-14T08:40:42.691Z,18.9
2018-11-14T08:41:58.522Z,18.8
2018-11-14T08:42:59.987Z,18.7
2018-11-14T08:44:01.477Z,18.7
2018-11-14T08:45:02.856Z,18.6
2018-11-14T08:46:04.539Z,18.8
2018-11-14T08:47:06.018Z,18.8
2018-11-14T08:48:07.364Z,18.7
2018-11-14T08:49:08.724Z,18.9
2018-11-14T08:50:10.091Z,18.8
2018-11-14T08:51:11.374Z,18.8
2018-11-14T08:52:12.754Z,18.8
2018-11-14T08:53:14.154Z,18.7
2018-11-14T08:54:15.514Z,18.7
2018-11-14T08:55:16.924Z,18.9
2018-11-14T08:56:18.554Z,18.8
2018-11-14T08:57:20.057Z,18.8
2018-11-14T08:58:21.446Z,19
2018-11-14T08:59:23.074Z,18.9
2018-11-14T09:00:24.712Z,18.9
2018-11-14T09:01:26.130Z,18.9
2018-11-14T09:02:27.613Z,18.9
2018-11-14T09:03:28.934Z,18.9
2018-11-14T09:04:30.462Z,18.9
2018-11-14T09:05:32.557Z,19
2018-11-14T09:06:34.673Z,18.9
2018-11-14T09:07:36.021Z,18.9
2018-11-14T09:08:37.318Z,19
2018-11-14T09:09:38.718Z,18.8
2018-11-14T09:10:40.533Z,18.9
2018-11-14T09:11:44.853Z,19
2018-11-14T09:12:46.261Z,19
2018-11-14T09:13:47.601Z,19
2018-11-14T09:14:49.057Z,19.1
2018-11-14T09:15:53.823Z,19
2018-11-14T09:16:57.887Z,18.9
2018-11-14T09:17:59.275Z,18.9
2018-11-14T09:19:00.640Z,18.9
2018-11-14T09:20:02.196Z,19
2018-11-14T09:21:06.293Z,19
2018-11-14T09:22:07.630Z,18.9
2018-11-14T09:23:08.954Z,18.9
2018-11-14T09:24:12.501Z,18.8
2018-11-14T09:25:14.102Z,18.8
2018-11-14T09:26:15.430Z,18.9
2018-11-14T09:27:17.059Z,19
2018-11-14T09:28:18.484Z,19
2018-11-14T09:29:23.227Z,18.9
2018-11-14T09:30:25.713Z,18.9
2018-11-14T09:31:27.042Z,18.8
2018-11-14T09:32:28.406Z,19
2018-11-14T09:33:32.297Z,19
2018-11-14T09:34:33.715Z,19
2018-11-14T09:35:35.054Z,19
2018-11-14T09:36:38.901Z,19.2
2018-11-14T09:37:46.401Z,19.2
2018-11-14T09:38:48.073Z,19.3
2018-11-14T09:39:49.398Z,19.3
2018-11-14T09:40:53.757Z,19.3
2018-11-14T09:41:55.062Z,19.2
2018-11-14T09:42:56.535Z,19.2
2018-11-14T09:43:58.160Z,19.2
2018-11-14T09:44:59.475Z,19.2
2018-11-14T09:46:03.154Z,19.2
2018-11-14T09:47:04.454Z,19.2
2018-11-14T09:48:05.814Z,19.1
2018-11-14T09:49:07.162Z,19.1
2018-11-14T09:50:08.484Z,19.3
2018-11-14T09:51:11.856Z,19.3
2018-11-14T09:52:15.580Z,19.4
2018-11-14T09:53:17.205Z,19.4
2018-11-14T09:54:18.446Z,19.4
2018-11-14T09:55:19.822Z,19.4
2018-11-14T09:56:21.175Z,19.4
2018-11-14T09:57:22.503Z,19.3
2018-11-14T09:58:23.885Z,19.4
2018-11-14T09:59:25.242Z,19.3
2018-11-14T10:00:26.589Z,19.4
2018-11-14T10:01:29.828Z,19.4
2018-11-14T10:02:35.200Z,19.4
2018-11-14T10:03:37.867Z,19.4
2018-11-14T10:04:41.389Z,19.4
2018-11-14T10:05:45.618Z,19.4
2018-11-14T10:06:46.962Z,19.4
2018-11-14T10:07:49.373Z,19.4
2018-11-14T10:08:50.747Z,19.4
2018-11-14T10:09:57.882Z,19.4
2018-11-14T10:10:59.263Z,19.3
2018-11-14T10:12:00.604Z,19.3
2018-11-14T10:13:03.872Z,19.3
2018-11-14T10:14:05.267Z,19.3
2018-11-14T10:15:06.570Z,19.4
2018-11-14T10:16:07.939Z,19.4
2018-11-14T10:17:09.341Z,19.4
2018-11-14T10:18:13.104Z,19.4
2018-11-14T10:19:14.761Z,19.3
2018-11-14T10:20:17.646Z,19.3
2018-11-14T10:21:20.721Z,19.2
2018-11-14T10:22:24.500Z,19.4
2018-11-14T10:23:28.286Z,19.3
2018-11-14T10:24:32.483Z,19.4
2018-11-14T10:25:36.154Z,19.5
2018-11-14T10:26:37.487Z,19.5
2018-11-14T10:27:41.605Z,19.5
2018-11-14T10:28:43.174Z,19.5
2018-11-14T10:29:46.762Z,19.6
2018-11-14T10:30:48.194Z,19.6
2018-11-14T10:31:52.258Z,19.7
2018-11-14T10:32:59.677Z,19.7
2018-11-14T10:34:01.065Z,19.6
2018-11-14T10:35:02.474Z,19.5
2018-11-14T10:36:04.110Z,19.5
2018-11-14T10:37:06.933Z,19.5
2018-11-14T10:38:08.636Z,19.4
2018-11-14T10:39:14.006Z,19.5
2018-11-14T10:40:15.389Z,19.5
2018-11-14T10:41:16.724Z,19.5
2018-11-14T10:42:18.056Z,19.6
2018-11-14T10:43:19.471Z,19.7
2018-11-14T10:44:23.353Z,19.7
2018-11-14T10:45:24.719Z,19.7
2018-11-14T10:46:26.106Z,19.7
2018-11-14T10:47:30.389Z,19.5
2018-11-14T10:48:31.984Z,19.6
2018-11-14T10:49:33.316Z,19.7
2018-11-14T10:50:34.812Z,19.7
2018-11-14T10:51:36.215Z,19.7
2018-11-14T10:52:40.400Z,19.7
2018-11-14T10:53:45.007Z,19.8
2018-11-14T10:54:46.675Z,19.8
2018-11-14T10:55:50.889Z,19.7
2018-11-14T10:56:52.325Z,19.7
2018-11-14T10:58:02.270Z,19.8
2018-11-14T10:59:04.221Z,19.8
2018-11-14T11:00:05.784Z,19.8
2018-11-14T11:01:07.255Z,19.8
2018-11-14T11:02:10.090Z,19.8
2018-11-14T11:03:11.547Z,19.6
2018-11-14T11:04:12.928Z,19.8
2018-11-14T11:05:15.004Z,19.8
2018-11-14T11:06:16.396Z,19.6
2018-11-14T11:07:17.869Z,19.8
2018-11-14T11:08:20.547Z,19.8
2018-11-14T11:09:22.039Z,19.9
2018-11-14T11:10:23.446Z,19.9
2018-11-14T11:11:24.893Z,19.9
2018-11-14T11:12:26.317Z,20
2018-11-14T11:13:28.028Z,20
2018-11-14T11:14:29.494Z,20.1
2018-11-14T11:15:30.964Z,20.1
2018-11-14T11:16:32.647Z,20
2018-11-14T11:17:39.981Z,20
2018-11-14T11:18:41.421Z,20.1
2018-11-14T11:19:45.640Z,20.1
2018-11-14T11:20:49.809Z,20.2
2018-11-14T11:21:51.586Z,20.2
2018-11-14T11:23:01.609Z,20.1
2018-11-14T11:24:08.771Z,20.1
2018-11-14T11:25:19.456Z,20
2018-11-14T11:26:24.223Z,19.9
2018-11-14T11:27:26.619Z,20.1
2018-11-14T11:28:30.838Z,20.1
2018-11-14T11:29:37.168Z,20
2018-11-14T11:30:39.082Z,20.1
2018-11-14T11:31:40.588Z,20.2
2018-11-14T11:32:42.108Z,20.1
2018-11-14T11:33:43.495Z,20.1
2018-11-14T11:34:46.550Z,20.2
2018-11-14T11:35:52.208Z,20.2
2018-11-14T11:36:53.689Z,20.2
2018-11-14T11:37:57.865Z,20.1
2018-11-14T11:39:01.401Z,20.3
2018-11-14T11:40:02.932Z,20.1
2018-11-14T11:41:04.823Z,20.2
2018-11-14T11:42:06.295Z,20.2
2018-11-14T11:43:08.246Z,20.2
2018-11-14T11:44:12.667Z,20.2
2018-11-14T11:45:15.605Z,20.3
2018-11-14T11:46:17.093Z,20.3
2018-11-14T11:47:18.534Z,20.3
2018-11-14T11:48:19.896Z,20.2
2018-11-14T11:49:22.620Z,20.2
2018-11-14T11:50:24.493Z,20.3
2018-11-14T11:51:30.380Z,20.3
2018-11-14T11:52:31.819Z,20.3
2018-11-14T11:53:36.066Z,20.4
2018-11-14T11:54:37.458Z,20.3
2018-11-14T11:55:39.317Z,20.3
2018-11-14T11:56:40.893Z,20.3
2018-11-14T11:57:42.260Z,20.2
2018-11-14T11:58:43.642Z,20.3
2018-11-14T11:59:45.166Z,20.3
2018-11-14T12:00:46.547Z,20.4
2018-11-14T12:01:48.365Z,20.4
2018-11-14T12:02:51.539Z,20.3
2018-11-14T12:03:53.210Z,20.3
2018-11-14T12:04:54.712Z,20.4
2018-11-14T12:05:56.381Z,20.4
2018-11-14T12:07:00.430Z,20.3
2018-11-14T12:08:04.843Z,20.4
2018-11-14T12:09:12.268Z,20.4
2018-11-14T12:10:13.743Z,20.5
2018-11-14T12:11:15.785Z,20.5
2018-11-14T12:12:17.535Z,20.5
2018-11-14T12:13:19.349Z,20.4
2018-11-14T12:14:21.287Z,20.5
2018-11-14T12:15:22.649Z,20.5
2018-11-14T12:16:25.903Z,20.5
2018-11-14T12:17:27.498Z,20.5
2018-11-14T12:18:35.970Z,20.5
2018-11-14T12:19:37.584Z,20.4
2018-11-14T12:20:39.053Z,20.4
2018-11-14T12:21:44.853Z,20.4
2018-11-14T12:22:48.728Z,20.4
2018-11-14T12:23:55.596Z,20.4
2018-11-14T12:24:57.036Z,20.5
2018-11-14T12:25:58.483Z,20.4
2018-11-14T12:26:59.879Z,20.5
2018-11-14T12:28:01.326Z,20.5
2018-11-14T12:29:02.780Z,20.3
2018-11-14T12:30:05.155Z,20.4
2018-11-14T12:31:09.474Z,20.4
2018-11-14T12:32:10.752Z,20.4
2018-11-14T12:33:12.347Z,20.5
2018-11-14T12:34:13.745Z,20.5
2018-11-14T12:35:17.775Z,20.5
2018-11-14T12:36:19.411Z,20.4
2018-11-14T12:37:26.072Z,20.5
2018-11-14T12:38:27.864Z,20.4
2018-11-14T12:39:29.570Z,20.3
2018-11-14T12:40:32.329Z,20.5
2018-11-14T12:41:33.761Z,20.5
2018-11-14T12:42:35.310Z,20.5
2018-11-14T12:43:36.735Z,20.4
2018-11-14T12:44:38.493Z,20.4
2018-11-14T12:45:39.978Z,20.3
2018-11-14T12:46:41.607Z,20.4
2018-11-14T12:47:53.289Z,20.4
2018-11-14T12:48:54.743Z,20.4
2018-11-14T12:49:56.314Z,20.4
2018-11-14T12:50:57.715Z,20.3
2018-11-14T12:52:01.611Z,20.3
2018-11-14T12:53:05.449Z,20.2
2018-11-14T12:54:09.338Z,20.3
2018-11-14T12:55:10.795Z,20.3
2018-11-14T12:56:15.642Z,20.3
2018-11-14T12:57:17.386Z,20.3
2018-11-14T12:58:18.839Z,20.3
2018-11-14T12:59:20.467Z,20.2
2018-11-14T13:00:22.277Z,20.2
2018-11-14T13:01:23.726Z,20.3
2018-11-14T13:02:25.531Z,20.3
2018-11-14T13:03:27.170Z,20.3
2018-11-14T13:04:28.636Z,20.3
2018-11-14T13:05:30.102Z,20.2
2018-11-14T13:06:31.521Z,20.3
2018-11-14T13:07:32.961Z,20.1
2018-11-14T13:08:35.198Z,20.3
2018-11-14T13:09:36.618Z,20.4
2018-11-14T13:10:37.961Z,20.4
2018-11-14T13:11:39.445Z,20.1
2018-11-14T13:12:40.843Z,20.4
2018-11-14T13:13:42.483Z,20.2
2018-11-14T13:14:44.144Z,20.2
2018-11-14T13:15:51.336Z,20.4
2018-11-14T13:16:52.869Z,20.4
2018-11-14T13:17:57.511Z,20.3
2018-11-14T13:18:58.885Z,20.2
2018-11-14T13:20:00.290Z,20.3
2018-11-14T13:21:09.297Z,20.2
2018-11-14T13:22:12.134Z,20.2
2018-11-14T13:23:13.515Z,20.2
2018-11-14T13:24:22.031Z,20.3
2018-11-14T13:25:32.760Z,20.3
2018-11-14T13:26:34.324Z,20.3
2018-11-14T13:27:35.833Z,20.3
2018-11-14T13:28:37.242Z,20.3
2018-11-14T13:29:38.615Z,20.3
2018-11-14T13:30:42.544Z,20.2
2018-11-14T13:31:44.377Z,20.3
2018-11-14T13:32:47.320Z,20.3
2018-11-14T13:33:53.530Z,20.3
2018-11-14T13:34:55.276Z,20.4
2018-11-14T13:35:56.711Z,20.4
2018-11-14T13:36:58.152Z,20.4
2018-11-14T13:37:59.543Z,20.3
2018-11-14T13:39:00.986Z,20.3
2018-11-14T13:40:11.451Z,20.3
2018-11-14T13:41:14.664Z,20.3
2018-11-14T13:42:16.115Z,20.3
2018-11-14T13:43:17.671Z,20.3
2018-11-14T13:44:19.035Z,20.3
2018-11-14T13:45:20.546Z,20.2
2018-11-14T13:46:24.103Z,20.3
2018-11-14T13:47:25.917Z,20.3
2018-11-14T13:48:27.359Z,20.3
2018-11-14T13:49:29.131Z,20.2
2018-11-14T13:50:32.791Z,20.2
2018-11-14T13:51:39.511Z,20.2
2018-11-14T13:52:41.155Z,20.2
2018-11-14T13:53:45.399Z,20.3
2018-11-14T13:54:48.855Z,20.3